Donisthorpe, United Kingdom
Current Conditions -  °F | °C
As of 1:50 AM on Tuesday 25 Nov 2014 (Local Time) from EGNX Reporting Station
Light Fog Light Fog  
Wind Chill: 32°   Ceiling: Unl
Heat Index: 32°   Visibility: 2.1mi
Dew Point: 32°   Wind: 3mph
Humidity: 100%   Direction: 330°NNW
Pressure: 30.3"   Gusts: NA
Location:  52.72°N, 1.54°W
Report Text: EGNX 250150Z 33003KT 3500 R27/0900 PRFG NSC M00/M00 Q1026
Loading
Personal Weather Stations






























Interactive Weather Map New forecast layout! Learn more

10-Day Weather Forecast

Advertisements
Track Severe Weather on mobile